Terminal Aerodrome Forecast
Issued by NWS

Home | Current Version | Previous Version | Text Only | Print | Product List | Glossary On
Versions: 1 2 3 4 5 6 7 8 9 10 11 12 13 14 15 16 17 18 19 20 21 22 23 24 25 26
000
FTUS45 KGGW 242159 AAA
TAFOLF
TAF AMD
KOLF 242159Z 2422/2518 33012KT P6SM VCSH SCT015 OVC035
      TEMPO 2422/2424 33018G27KT 5SM -SHRA SCT005 OVC015
     FM250600 30012KT P6SM SCT070 BKN200=

USA.gov is the U.S. government's official web portal to all federal, state and local government web resources and services.